sensor_id;sensor_type;location;lat;lon;timestamp;pressure;altitude;pressure_sealevel;temperature;humidity
76940;BME280;65885;55.848;35.916;2023-02-11T00:01:33;99293.84;;;0.89;60.32
76940;BME280;65885;55.848;35.916;2023-02-11T00:04:02;99291.16;;;1.14;60.55
76940;BME280;65885;55.848;35.916;2023-02-11T00:06:31;99281.56;;;1.32;59.95
76940;BME280;65885;55.848;35.916;2023-02-11T00:09:01;99292.63;;;1.51;58.94
76940;BME280;65885;55.848;35.916;2023-02-11T00:11:29;99284.72;;;1.68;58.26
76940;BME280;65885;55.848;35.916;2023-02-11T00:13:57;99293.22;;;1.81;57.41
76940;BME280;65885;55.848;35.916;2023-02-11T00:16:25;99282.84;;;1.85;57.30
76940;BME280;65885;55.848;35.916;2023-02-11T00:18:53;99286.34;;;1.80;57.43
76940;BME280;65885;55.848;35.916;2023-02-11T00:21:21;99276.91;;;1.73;57.81
76940;BME280;65885;55.848;35.916;2023-02-11T00:23:50;99284.75;;;1.63;57.61
76940;BME280;65885;55.848;35.916;2023-02-11T00:26:20;99281.41;;;1.52;57.93
76940;BME280;65885;55.848;35.916;2023-02-11T00:28:48;99287.53;;;1.41;58.12
76940;BME280;65885;55.848;35.916;2023-02-11T00:31:17;99291.91;;;1.28;57.50
76940;BME280;65885;55.848;35.916;2023-02-11T00:33:45;99292.81;;;1.19;57.95
76940;BME280;65885;55.848;35.916;2023-02-11T00:36:14;99292.91;;;1.05;58.70
76940;BME280;65885;55.848;35.916;2023-02-11T00:38:43;99304.19;;;0.92;58.13
76940;BME280;65885;55.848;35.916;2023-02-11T00:41:10;99297.31;;;0.82;58.30
76940;BME280;65885;55.848;35.916;2023-02-11T00:43:39;99297.38;;;0.73;59.15
76940;BME280;65885;55.848;35.916;2023-02-11T00:46:07;99305.16;;;0.62;58.87
76940;BME280;65885;55.848;35.916;2023-02-11T00:48:34;99306.06;;;0.53;59.45
76940;BME280;65885;55.848;35.916;2023-02-11T00:51:02;99311.25;;;0.46;59.66
76940;BME280;65885;55.848;35.916;2023-02-11T00:53:30;99308.69;;;0.37;59.73
76940;BME280;65885;55.848;35.916;2023-02-11T00:55:57;99304.41;;;0.31;59.82
76940;BME280;65885;55.848;35.916;2023-02-11T00:58:25;99312.97;;;0.30;60.48
76940;BME280;65885;55.848;35.916;2023-02-11T01:00:55;99312.13;;;0.40;60.41
76940;BME280;65885;55.848;35.916;2023-02-11T01:03:22;99316.34;;;0.58;60.53
76940;BME280;65885;55.848;35.916;2023-02-11T01:05:50;99305.09;;;0.77;59.82
76940;BME280;65885;55.848;35.916;2023-02-11T01:08:18;99307.59;;;0.96;59.28
76940;BME280;65885;55.848;35.916;2023-02-11T01:10:53;99310.06;;;1.16;58.60
76940;BME280;65885;55.848;35.916;2023-02-11T01:13:20;99303.97;;;1.29;58.16
76940;BME280;65885;55.848;35.916;2023-02-11T01:15:48;99311.63;;;1.39;57.88
76940;BME280;65885;55.848;35.916;2023-02-11T01:18:17;99307.31;;;1.45;57.65
76940;BME280;65885;55.848;35.916;2023-02-11T01:20:44;99303.88;;;1.41;56.89
76940;BME280;65885;55.848;35.916;2023-02-11T01:23:12;99316.88;;;1.30;56.91
76940;BME280;65885;55.848;35.916;2023-02-11T01:25:39;99312.66;;;1.17;57.66
76940;BME280;65885;55.848;35.916;2023-02-11T01:28:12;99315.31;;;1.00;57.57
76940;BME280;65885;55.848;35.916;2023-02-11T01:30:41;99314.53;;;0.83;57.98
76940;BME280;65885;55.848;35.916;2023-02-11T01:33:09;99308.56;;;0.67;58.04
76940;BME280;65885;55.848;35.916;2023-02-11T01:35:38;99312.09;;;0.54;58.36
76940;BME280;65885;55.848;35.916;2023-02-11T01:38:06;99314.69;;;0.40;58.30
76940;BME280;65885;55.848;35.916;2023-02-11T01:40:34;99307.84;;;0.27;58.60
76940;BME280;65885;55.848;35.916;2023-02-11T01:43:01;99310.44;;;0.15;58.63
76940;BME280;65885;55.848;35.916;2023-02-11T01:45:57;99313.06;;;0.03;58.84
76940;BME280;65885;55.848;35.916;2023-02-11T01:48:28;99316.50;;;-0.11;59.68
76940;BME280;65885;55.848;35.916;2023-02-11T01:51:03;99313.91;;;-0.23;59.74
76940;BME280;65885;55.848;35.916;2023-02-11T01:53:33;99316.50;;;-0.35;60.10
76940;BME280;65885;55.848;35.916;2023-02-11T01:56:19;99317.38;;;-0.45;60.19
76940;BME280;65885;55.848;35.916;2023-02-11T01:59:07;99313.06;;;-0.43;60.37
76940;BME280;65885;55.848;35.916;2023-02-11T02:01:38;99320.78;;;-0.33;60.81
76940;BME280;65885;55.848;35.916;2023-02-11T02:04:07;99311.34;;;-0.18;59.93
76940;BME280;65885;55.848;35.916;2023-02-11T02:06:44;99312.19;;;-0.03;60.04
76940;BME280;65885;55.848;35.916;2023-02-11T02:09:16;99319.91;;;0.11;59.01
76940;BME280;65885;55.848;35.916;2023-02-11T02:11:46;99315.59;;;0.21;58.93
76940;BME280;65885;55.848;35.916;2023-02-11T02:14:14;99320.75;;;0.32;58.84
76940;BME280;65885;55.848;35.916;2023-02-11T02:16:41;99314.69;;;0.37;58.62
76940;BME280;65885;55.848;35.916;2023-02-11T02:19:28;99321.53;;;0.44;58.18
76940;BME280;65885;55.848;35.916;2023-02-11T02:22:27;99328.44;;;0.42;57.93
76940;BME280;65885;55.848;35.916;2023-02-11T02:27:59;99325.06;;;0.10;58.09
76940;BME280;65885;55.848;35.916;2023-02-11T02:30:39;99316.50;;;-0.09;57.49
76940;BME280;65885;55.848;35.916;2023-02-11T02:33:33;99318.22;;;-0.34;58.48
76940;BME280;65885;55.848;35.916;2023-02-11T02:36:08;99315.63;;;-0.56;58.46
76940;BME280;65885;55.848;35.916;2023-02-11T02:38:43;99321.63;;;-0.75;59.18
76940;BME280;65885;55.848;35.916;2023-02-11T02:41:15;99315.56;;;-0.92;59.41
76940;BME280;65885;55.848;35.916;2023-02-11T02:43:46;99301.78;;;-1.08;59.78
76940;BME280;65885;55.848;35.916;2023-02-11T02:46:16;99315.47;;;-1.21;60.12
76940;BME280;65885;55.848;35.916;2023-02-11T02:48:46;99315.44;;;-1.30;60.24
76940;BME280;65885;55.848;35.916;2023-02-11T02:51:32;99319.69;;;-1.38;60.46
76940;BME280;65885;55.848;35.916;2023-02-11T02:54:30;99318.81;;;-1.48;61.00
76940;BME280;65885;55.848;35.916;2023-02-11T02:57:06;99315.38;;;-1.44;61.25
76940;BME280;65885;55.848;35.916;2023-02-11T02:59:45;99318.00;;;-1.32;61.33
76940;BME280;65885;55.848;35.916;2023-02-11T03:02:17;99309.50;;;-1.16;61.10
76940;BME280;65885;55.848;35.916;2023-02-11T03:04:52;99303.53;;;-1.01;60.84
76940;BME280;65885;55.848;35.916;2023-02-11T03:07:28;99297.56;;;-0.86;60.68
76940;BME280;65885;55.848;35.916;2023-02-11T03:10:06;99295.00;;;-0.72;60.16
76940;BME280;65885;55.848;35.916;2023-02-11T03:12:36;99303.59;;;-0.61;59.81
76940;BME280;65885;55.848;35.916;2023-02-11T03:15:05;99301.91;;;-0.51;59.52
76940;BME280;65885;55.848;35.916;2023-02-11T03:17:34;99295.03;;;-0.48;59.29
76940;BME280;65885;55.848;35.916;2023-02-11T03:20:05;99310.50;;;-0.49;59.34
76940;BME280;65885;55.848;35.916;2023-02-11T03:22:37;99301.06;;;-0.60;59.82
76940;BME280;65885;55.848;35.916;2023-02-11T03:25:06;99284.72;;;-0.71;59.77
76940;BME280;65885;55.848;35.916;2023-02-11T03:27:39;99282.97;;;-0.86;59.90
76940;BME280;65885;55.848;35.916;2023-02-11T03:30:10;99287.22;;;-0.98;60.00
76940;BME280;65885;55.848;35.916;2023-02-11T03:32:42;99286.34;;;-1.09;60.48
76940;BME280;65885;55.848;35.916;2023-02-11T03:35:19;99286.31;;;-1.22;60.77
76940;BME280;65885;55.848;35.916;2023-02-11T03:37:50;99290.56;;;-1.31;61.01
76940;BME280;65885;55.848;35.916;2023-02-11T03:40:22;99279.41;;;-1.40;61.29
76940;BME280;65885;55.848;35.916;2023-02-11T03:42:53;99284.50;;;-1.47;61.67
76940;BME280;65885;55.848;35.916;2023-02-11T03:45:24;99282.78;;;-1.54;61.80
76940;BME280;65885;55.848;35.916;2023-02-11T03:47:55;99278.47;;;-1.58;62.00
76940;BME280;65885;55.848;35.916;2023-02-11T03:50:28;99275.06;;;-1.51;62.31
76940;BME280;65885;55.848;35.916;2023-02-11T03:52:55;99277.72;;;-1.36;62.09
76940;BME280;65885;55.848;35.916;2023-02-11T03:55:25;99271.75;;;-1.18;62.14
76940;BME280;65885;55.848;35.916;2023-02-11T03:57:54;99267.50;;;-0.99;61.95
76940;BME280;65885;55.848;35.916;2023-02-11T04:00:29;99264.09;;;-0.78;61.69
76940;BME280;65885;55.848;35.916;2023-02-11T04:02:57;99268.41;;;-0.62;61.63
76940;BME280;65885;55.848;35.916;2023-02-11T04:05:25;99264.13;;;-0.45;61.03
76940;BME280;65885;55.848;35.916;2023-02-11T04:07:53;99264.97;;;-0.28;60.58
76940;BME280;65885;55.848;35.916;2023-02-11T04:10:20;99258.94;;;-0.13;60.51
76940;BME280;65885;55.848;35.916;2023-02-11T04:12:48;99265.81;;;0.02;60.34
76940;BME280;65885;55.848;35.916;2023-02-11T04:15:15;99264.91;;;0.17;60.34
76940;BME280;65885;55.848;35.916;2023-02-11T04:17:43;99264.03;;;0.25;59.95
76940;BME280;65885;55.848;35.916;2023-02-11T04:20:10;99268.31;;;0.25;59.74
76940;BME280;65885;55.848;35.916;2023-02-11T04:22:39;99256.31;;;0.16;59.87
76940;BME280;65885;55.848;35.916;2023-02-11T04:25:08;99260.63;;;0.10;59.64
76940;BME280;65885;55.848;35.916;2023-02-11T04:27:35;99259.81;;;0.00;60.31
76940;BME280;65885;55.848;35.916;2023-02-11T04:30:04;99259.81;;;-0.11;60.66
76940;BME280;65885;55.848;35.916;2023-02-11T04:32:32;99259.81;;;-0.18;60.52
76940;BME280;65885;55.848;35.916;2023-02-11T04:34:59;99258.09;;;-0.25;61.23
76940;BME280;65885;55.848;35.916;2023-02-11T04:37:29;99258.13;;;-0.30;61.16
76940;BME280;65885;55.848;35.916;2023-02-11T04:39:58;99252.94;;;-0.33;61.86
76940;BME280;65885;55.848;35.916;2023-02-11T04:42:25;99260.69;;;-0.30;61.64
76940;BME280;65885;55.848;35.916;2023-02-11T04:44:53;99256.38;;;-0.17;61.80
76940;BME280;65885;55.848;35.916;2023-02-11T04:47:20;99250.31;;;-0.01;61.57
76940;BME280;65885;55.848;35.916;2023-02-11T04:49:47;99264.03;;;0.18;61.77
76940;BME280;65885;55.848;35.916;2023-02-11T04:52:15;99242.47;;;0.36;60.81
76940;BME280;65885;55.848;35.916;2023-02-11T04:54:42;99245.88;;;0.53;60.28
76940;BME280;65885;55.848;35.916;2023-02-11T04:57:11;99247.50;;;0.68;59.76
76940;BME280;65885;55.848;35.916;2023-02-11T04:59:38;99258.63;;;0.80;59.43
76940;BME280;65885;55.848;35.916;2023-02-11T05:02:06;99258.56;;;0.90;59.32
76940;BME280;65885;55.848;35.916;2023-02-11T05:04:34;99249.97;;;0.88;59.41
76940;BME280;65885;55.848;35.916;2023-02-11T05:07:01;99250.03;;;0.80;59.11
76940;BME280;65885;55.848;35.916;2023-02-11T05:09:28;99250.06;;;0.68;58.84
76940;BME280;65885;55.848;35.916;2023-02-11T05:11:56;99244.13;;;0.55;59.35
76940;BME280;65885;55.848;35.916;2023-02-11T05:14:24;99251.09;;;0.39;59.08
76940;BME280;65885;55.848;35.916;2023-02-11T05:16:52;99250.25;;;0.30;59.44
76940;BME280;65885;55.848;35.916;2023-02-11T05:19:19;99242.56;;;0.19;59.58
76940;BME280;65885;55.848;35.916;2023-02-11T05:21:47;99236.59;;;0.08;60.11
76940;BME280;65885;55.848;35.916;2023-02-11T05:24:14;99235.72;;;-0.01;60.57
76940;BME280;65885;55.848;35.916;2023-02-11T05:26:41;99230.59;;;-0.10;60.23
76940;BME280;65885;55.848;35.916;2023-02-11T05:29:09;99228.03;;;-0.19;61.03
76940;BME280;65885;55.848;35.916;2023-02-11T05:31:37;99232.34;;;-0.22;61.07
76940;BME280;65885;55.848;35.916;2023-02-11T05:34:12;99236.59;;;-0.15;61.27
76940;BME280;65885;55.848;35.916;2023-02-11T05:36:40;99227.13;;;-0.03;61.51
76940;BME280;65885;55.848;35.916;2023-02-11T05:39:07;99228.81;;;0.15;61.06
76940;BME280;65885;55.848;35.916;2023-02-11T05:41:37;99216.72;;;0.30;60.93
76940;BME280;65885;55.848;35.916;2023-02-11T05:44:04;99228.69;;;0.44;60.76
76940;BME280;65885;55.848;35.916;2023-02-11T05:46:32;99226.91;;;0.57;60.41
76940;BME280;65885;55.848;35.916;2023-02-11T05:49:01;99226.88;;;0.69;59.32
76940;BME280;65885;55.848;35.916;2023-02-11T05:51:29;99219.03;;;0.81;59.38
76940;BME280;65885;55.848;35.916;2023-02-11T05:53:56;99211.25;;;0.92;58.68
76940;BME280;65885;55.848;35.916;2023-02-11T05:56:23;99212.06;;;1.00;58.96
76940;BME280;65885;55.848;35.916;2023-02-11T05:58:53;99205.16;;;0.98;58.09
76940;BME280;65885;55.848;35.916;2023-02-11T06:01:20;99201.78;;;0.90;58.84
76940;BME280;65885;55.848;35.916;2023-02-11T06:03:48;99214.75;;;0.79;58.62
76940;BME280;65885;55.848;35.916;2023-02-11T06:06:17;99212.25;;;0.65;58.62
76940;BME280;65885;55.848;35.916;2023-02-11T06:08:44;99213.19;;;0.49;59.42
76940;BME280;65885;55.848;35.916;2023-02-11T06:11:13;99216.69;;;0.37;59.08
76940;BME280;65885;55.848;35.916;2023-02-11T06:13:41;99229.66;;;0.23;59.90
76940;BME280;65885;55.848;35.916;2023-02-11T06:16:09;99219.34;;;0.13;59.85
76940;BME280;65885;55.848;35.916;2023-02-11T06:18:37;99228.84;;;0.09;60.25
76940;BME280;65885;55.848;35.916;2023-02-11T06:21:06;99233.09;;;0.18;60.35
76940;BME280;65885;55.848;35.916;2023-02-11T06:23:35;99221.88;;;0.28;60.42
76940;BME280;65885;55.848;35.916;2023-02-11T06:26:05;99220.97;;;0.41;60.20
76940;BME280;65885;55.848;35.916;2023-02-11T06:28:33;99208.84;;;0.57;60.26
76940;BME280;65885;55.848;35.916;2023-02-11T06:31:04;99214.78;;;0.73;59.95
76940;BME280;65885;55.848;35.916;2023-02-11T06:33:32;99212.16;;;0.83;59.06
76940;BME280;65885;55.848;35.916;2023-02-11T06:36:01;99211.22;;;0.95;59.12
76940;BME280;65885;55.848;35.916;2023-02-11T06:38:28;99207.69;;;1.08;59.22
76940;BME280;65885;55.848;35.916;2023-02-11T06:40:57;99211.94;;;1.13;58.35
76940;BME280;65885;55.848;35.916;2023-02-11T06:43:25;99211.13;;;1.09;58.19
76940;BME280;65885;55.848;35.916;2023-02-11T06:45:52;99216.38;;;0.98;58.55
76940;BME280;65885;55.848;35.916;2023-02-11T06:48:20;99210.44;;;0.84;58.05
76940;BME280;65885;55.848;35.916;2023-02-11T06:50:48;99213.09;;;0.72;58.15
76940;BME280;65885;55.848;35.916;2023-02-11T06:53:15;99201.09;;;0.62;58.86
76940;BME280;65885;55.848;35.916;2023-02-11T06:55:43;99196.84;;;0.51;59.74
76940;BME280;65885;55.848;35.916;2023-02-11T06:58:11;99201.19;;;0.43;59.28
76940;BME280;65885;55.848;35.916;2023-02-11T07:00:39;99187.47;;;0.40;60.28
76940;BME280;65885;55.848;35.916;2023-02-11T07:03:06;99176.28;;;0.39;60.03
76940;BME280;65885;55.848;35.916;2023-02-11T07:05:33;99172.84;;;0.39;60.07
76940;BME280;65885;55.848;35.916;2023-02-11T07:08:03;99170.22;;;0.45;60.30
76940;BME280;65885;55.848;35.916;2023-02-11T07:10:30;99168.44;;;0.61;60.63
76940;BME280;65885;55.848;35.916;2023-02-11T07:12:59;99168.28;;;0.82;60.24
76940;BME280;65885;55.848;35.916;2023-02-11T07:15:28;99160.41;;;1.02;59.97
76940;BME280;65885;55.848;35.916;2023-02-11T07:17:55;99161.09;;;1.24;59.48
76940;BME280;65885;55.848;35.916;2023-02-11T07:20:23;99160.91;;;1.44;59.19
76940;BME280;65885;55.848;35.916;2023-02-11T07:22:51;99165.03;;;1.61;58.01
76940;BME280;65885;55.848;35.916;2023-02-11T07:25:19;99157.16;;;1.75;57.48
76940;BME280;65885;55.848;35.916;2023-02-11T07:27:46;99151.03;;;1.82;57.39
76940;BME280;65885;55.848;35.916;2023-02-11T07:30:14;99145.84;;;1.84;57.51
76940;BME280;65885;55.848;35.916;2023-02-11T07:32:43;99138.19;;;1.73;56.92
76940;BME280;65885;55.848;35.916;2023-02-11T07:35:11;99140.91;;;1.62;57.40
76940;BME280;65885;55.848;35.916;2023-02-11T07:37:39;99136.69;;;1.51;57.83
76940;BME280;65885;55.848;35.916;2023-02-11T07:40:08;99137.69;;;1.41;57.54
76940;BME280;65885;55.848;35.916;2023-02-11T07:42:35;99123.16;;;1.29;57.80
76940;BME280;65885;55.848;35.916;2023-02-11T07:45:05;99131.81;;;1.23;59.02
76940;BME280;65885;55.848;35.916;2023-02-11T07:47:33;99119.81;;;1.18;58.49
76940;BME280;65885;55.848;35.916;2023-02-11T07:50:02;99120.72;;;1.10;59.00
76940;BME280;65885;55.848;35.916;2023-02-11T07:52:29;99118.22;;;1.06;58.75
76940;BME280;65885;55.848;35.916;2023-02-11T07:54:57;99116.50;;;1.03;59.83
76940;BME280;65885;55.848;35.916;2023-02-11T07:57:24;99113.06;;;1.01;59.83
76940;BME280;65885;55.848;35.916;2023-02-11T07:59:52;99109.63;;;1.02;59.70
76940;BME280;65885;55.848;35.916;2023-02-11T08:02:19;99106.16;;;1.03;59.38
76940;BME280;65885;55.848;35.916;2023-02-11T08:04:47;99100.91;;;1.13;60.01
76940;BME280;65885;55.848;35.916;2023-02-11T08:07:17;99098.19;;;1.29;59.67
76940;BME280;65885;55.848;35.916;2023-02-11T08:09:48;99079.88;;;1.52;59.33
76940;BME280;65885;55.848;35.916;2023-02-11T08:12:15;99086.50;;;1.73;59.42
76940;BME280;65885;55.848;35.916;2023-02-11T08:14:43;99075.06;;;1.92;58.88
76940;BME280;65885;55.848;35.916;2023-02-11T08:17:10;99068.81;;;2.12;57.88
76940;BME280;65885;55.848;35.916;2023-02-11T08:19:38;99059.94;;;2.28;57.64
76940;BME280;65885;55.848;35.916;2023-02-11T08:22:05;99051.97;;;2.43;57.32
76940;BME280;65885;55.848;35.916;2023-02-11T08:24:34;99048.38;;;2.52;57.67
76940;BME280;65885;55.848;35.916;2023-02-11T08:27:02;99047.44;;;2.56;56.91
76940;BME280;65885;55.848;35.916;2023-02-11T08:29:30;99041.44;;;2.54;56.25
76940;BME280;65885;55.848;35.916;2023-02-11T08:31:57;99032.03;;;2.47;56.77
76940;BME280;65885;55.848;35.916;2023-02-11T08:34:24;99029.59;;;2.38;57.35
76940;BME280;65885;55.848;35.916;2023-02-11T08:36:52;99014.16;;;2.32;56.96
76940;BME280;65885;55.848;35.916;2023-02-11T08:39:21;99013.41;;;2.25;57.43
76940;BME280;65885;55.848;35.916;2023-02-11T08:41:53;99011.72;;;2.22;57.42
76940;BME280;65885;55.848;35.916;2023-02-11T08:44:21;98992.78;;;2.20;57.67
76940;BME280;65885;55.848;35.916;2023-02-11T08:46:50;98998.78;;;2.22;57.88
76940;BME280;65885;55.848;35.916;2023-02-11T08:49:18;98992.72;;;2.25;57.31
76940;BME280;65885;55.848;35.916;2023-02-11T08:51:46;98986.63;;;2.29;57.81
76940;BME280;65885;55.848;35.916;2023-02-11T08:54:14;98971.84;;;2.34;57.99
76940;BME280;65885;55.848;35.916;2023-02-11T08:56:42;98965.47;;;2.55;56.73
76940;BME280;65885;55.848;35.916;2023-02-11T08:59:12;98957.41;;;2.73;56.79
76940;BME280;65885;55.848;35.916;2023-02-11T09:01:42;98954.44;;;2.93;56.35
76940;BME280;65885;55.848;35.916;2023-02-11T09:04:12;98929.06;;;3.12;55.70
76940;BME280;65885;55.848;35.916;2023-02-11T09:06:40;98930.28;;;3.36;54.65
76940;BME280;65885;55.848;35.916;2023-02-11T09:09:10;98931.63;;;3.55;53.92
76940;BME280;65885;55.848;35.916;2023-02-11T09:11:38;98924.50;;;3.65;53.53
76940;BME280;65885;55.848;35.916;2023-02-11T09:14:06;98925.13;;;3.75;53.14
76940;BME280;65885;55.848;35.916;2023-02-11T09:16:36;98918.16;;;3.77;53.04
76940;BME280;65885;55.848;35.916;2023-02-11T09:19:04;98920.13;;;3.67;52.90
76940;BME280;65885;55.848;35.916;2023-02-11T09:21:31;98904.88;;;3.53;52.50
76940;BME280;65885;55.848;35.916;2023-02-11T09:23:59;98911.31;;;3.36;52.96
76940;BME280;65885;55.848;35.916;2023-02-11T09:26:28;98902.16;;;3.19;53.16
76940;BME280;65885;55.848;35.916;2023-02-11T09:28:57;98888.66;;;3.03;53.40
76940;BME280;65885;55.848;35.916;2023-02-11T09:31:26;98894.91;;;2.92;53.43
76940;BME280;65885;55.848;35.916;2023-02-11T09:33:58;98896.91;;;2.77;53.65
76940;BME280;65885;55.848;35.916;2023-02-11T09:36:28;98882.56;;;2.61;54.17
76940;BME280;65885;55.848;35.916;2023-02-11T09:38:57;98884.50;;;2.50;53.93
76940;BME280;65885;55.848;35.916;2023-02-11T09:41:41;98854.44;;;2.43;53.96
76940;BME280;65885;55.848;35.916;2023-02-11T09:44:17;98871.56;;;2.50;54.17
76940;BME280;65885;55.848;35.916;2023-02-11T09:46:52;98875.56;;;2.66;53.06
76940;BME280;65885;55.848;35.916;2023-02-11T09:49:25;98847.69;;;2.81;53.01
76940;BME280;65885;55.848;35.916;2023-02-11T09:52:00;98863.84;;;2.92;52.72
76940;BME280;65885;55.848;35.916;2023-02-11T09:54:32;98862.03;;;2.97;52.62
76940;BME280;65885;55.848;35.916;2023-02-11T09:57:01;98849.66;;;3.10;51.85
76940;BME280;65885;55.848;35.916;2023-02-11T09:59:30;98838.28;;;3.17;51.96
76940;BME280;65885;55.848;35.916;2023-02-11T10:02:00;98839.84;;;3.24;51.46
76940;BME280;65885;55.848;35.916;2023-02-11T10:04:43;98825.03;;;3.30;51.40
76940;BME280;65885;55.848;35.916;2023-02-11T10:07:22;98822.59;;;3.23;51.96
76940;BME280;65885;55.848;35.916;2023-02-11T10:10:01;98815.94;;;3.13;51.94
76940;BME280;65885;55.848;35.916;2023-02-11T10:12:48;98810.09;;;3.01;52.22
76940;BME280;65885;55.848;35.916;2023-02-11T10:15:26;98809.53;;;2.89;52.83
76940;BME280;65885;55.848;35.916;2023-02-11T10:18:09;98804.53;;;2.79;52.51
76940;BME280;65885;55.848;35.916;2023-02-11T10:20:47;98801.38;;;2.65;53.12
76940;BME280;65885;55.848;35.916;2023-02-11T10:23:18;98778.31;;;2.53;53.09
76940;BME280;65885;55.848;35.916;2023-02-11T10:25:49;98778.56;;;2.42;53.53
76940;BME280;65885;55.848;35.916;2023-02-11T10:28:21;98779.56;;;2.34;54.23
76940;BME280;65885;55.848;35.916;2023-02-11T10:30:56;98774.53;;;2.28;54.72
76940;BME280;65885;55.848;35.916;2023-02-11T10:33:26;98761.69;;;2.21;54.38
76940;BME280;65885;55.848;35.916;2023-02-11T10:35:57;98754.91;;;2.16;54.80
76940;BME280;65885;55.848;35.916;2023-02-11T10:38:25;98747.03;;;2.22;55.23
76940;BME280;65885;55.848;35.916;2023-02-11T10:40:53;98739.91;;;2.33;55.62
76940;BME280;65885;55.848;35.916;2023-02-11T10:43:24;98738.69;;;2.51;54.50
76940;BME280;65885;55.848;35.916;2023-02-11T10:45:53;98723.69;;;2.67;54.46
76940;BME280;65885;55.848;35.916;2023-02-11T10:48:39;98725.81;;;2.87;54.59
76940;BME280;65885;55.848;35.916;2023-02-11T10:51:15;98715.13;;;3.02;54.03
76940;BME280;65885;55.848;35.916;2023-02-11T10:53:43;98712.34;;;3.10;54.01
76940;BME280;65885;55.848;35.916;2023-02-11T10:56:13;98708.91;;;3.09;53.53
76940;BME280;65885;55.848;35.916;2023-02-11T10:58:53;98699.63;;;3.00;53.19
76940;BME280;65885;55.848;35.916;2023-02-11T11:01:22;98693.00;;;2.89;54.15
76940;BME280;65885;55.848;35.916;2023-02-11T11:03:51;98692.34;;;2.79;53.46
76940;BME280;65885;55.848;35.916;2023-02-11T11:06:30;98685.81;;;2.63;53.79
76940;BME280;65885;55.848;35.916;2023-02-11T11:08:59;98678.38;;;2.47;54.14
76940;BME280;65885;55.848;35.916;2023-02-11T11:11:26;98682.91;;;2.38;54.96
76940;BME280;65885;55.848;35.916;2023-02-11T11:13:56;98672.78;;;2.27;55.35
76940;BME280;65885;55.848;35.916;2023-02-11T11:16:25;98664.28;;;2.19;55.83
76940;BME280;65885;55.848;35.916;2023-02-11T11:19:14;98653.25;;;2.11;56.29
76940;BME280;65885;55.848;35.916;2023-02-11T11:21:44;98654.25;;;2.05;55.75
76940;BME280;65885;55.848;35.916;2023-02-11T11:24:17;98647.47;;;2.00;56.25
76940;BME280;65885;55.848;35.916;2023-02-11T11:26:47;98629.47;;;1.93;56.25
76940;BME280;65885;55.848;35.916;2023-02-11T11:29:17;98627.81;;;1.91;57.21
76940;BME280;65885;55.848;35.916;2023-02-11T11:31:48;98629.59;;;1.87;57.51
76940;BME280;65885;55.848;35.916;2023-02-11T11:34:22;98609.75;;;1.89;56.98
76940;BME280;65885;55.848;35.916;2023-02-11T11:36:56;98613.69;;;2.07;57.13
76940;BME280;65885;55.848;35.916;2023-02-11T11:39:25;98598.56;;;2.29;56.65
76940;BME280;65885;55.848;35.916;2023-02-11T11:41:56;98599.84;;;2.48;56.77
76940;BME280;65885;55.848;35.916;2023-02-11T11:44:27;98600.28;;;2.67;56.29
76940;BME280;65885;55.848;35.916;2023-02-11T11:50:10;98569.19;;;3.04;55.45
76940;BME280;65885;55.848;35.916;2023-02-11T11:52:45;98569.78;;;3.14;55.69
76940;BME280;65885;55.848;35.916;2023-02-11T11:55:17;98565.41;;;3.18;55.85
76940;BME280;65885;55.848;35.916;2023-02-11T11:57:47;98556.09;;;3.09;56.13
76940;BME280;65885;55.848;35.916;2023-02-11T12:00:19;98542.59;;;2.98;56.17
76940;BME280;65885;55.848;35.916;2023-02-11T12:03:09;98532.66;;;2.81;56.57
76940;BME280;65885;55.848;35.916;2023-02-11T12:05:46;98528.81;;;2.62;57.22
76940;BME280;65885;55.848;35.916;2023-02-11T12:08:22;98513.75;;;2.43;57.64
76940;BME280;65885;55.848;35.916;2023-02-11T12:11:07;98518.38;;;2.29;58.23
76940;BME280;65885;55.848;35.916;2023-02-11T12:13:45;98497.19;;;2.13;59.53
76940;BME280;65885;55.848;35.916;2023-02-11T12:16:24;98498.31;;;2.02;59.47
76940;BME280;65885;55.848;35.916;2023-02-11T12:19:12;98492.53;;;1.90;60.75
76940;BME280;65885;55.848;35.916;2023-02-11T12:21:50;98479.88;;;1.78;60.83
76940;BME280;65885;55.848;35.916;2023-02-11T12:24:44;98474.94;;;1.67;61.33
76940;BME280;65885;55.848;35.916;2023-02-11T12:27:21;98472.53;;;1.60;62.07
76940;BME280;65885;55.848;35.916;2023-02-11T12:30:02;98464.94;;;1.52;62.43
76940;BME280;65885;55.848;35.916;2023-02-11T12:32:41;98458.19;;;1.45;62.52
76940;BME280;65885;55.848;35.916;2023-02-11T12:35:21;98457.44;;;1.40;62.68
76940;BME280;65885;55.848;35.916;2023-02-11T12:38:12;98443.78;;;1.33;63.40
76940;BME280;65885;55.848;35.916;2023-02-11T12:40:54;98443.03;;;1.30;62.76
76940;BME280;65885;55.848;35.916;2023-02-11T12:43:29;98440.53;;;1.25;63.64
76940;BME280;65885;55.848;35.916;2023-02-11T12:46:15;98420.78;;;1.23;63.33
76940;BME280;65885;55.848;35.916;2023-02-11T12:49:05;98423.41;;;1.20;63.65
76940;BME280;65885;55.848;35.916;2023-02-11T12:51:57;98408.00;;;1.17;64.05
76940;BME280;65885;55.848;35.916;2023-02-11T12:54:31;98398.59;;;1.13;64.35
76940;BME280;65885;55.848;35.916;2023-02-11T12:57:05;98392.47;;;1.18;64.15
76940;BME280;65885;55.848;35.916;2023-02-11T12:59:44;98384.41;;;1.33;64.72
76940;BME280;65885;55.848;35.916;2023-02-11T13:02:20;98362.50;;;1.50;63.96
76940;BME280;65885;55.848;35.916;2023-02-11T13:04:53;98369.81;;;1.70;63.43
76940;BME280;65885;55.848;35.916;2023-02-11T13:07:27;98359.06;;;1.86;63.04
76940;BME280;65885;55.848;35.916;2023-02-11T13:10:00;98362.13;;;2.02;63.39
76940;BME280;65885;55.848;35.916;2023-02-11T13:12:34;98357.50;;;2.15;62.50
76940;BME280;65885;55.848;35.916;2023-02-11T13:15:19;98354.69;;;2.24;62.43
76940;BME280;65885;55.848;35.916;2023-02-11T13:17:55;98347.81;;;2.23;62.18
76940;BME280;65885;55.848;35.916;2023-02-11T13:20:34;98343.72;;;2.14;62.04
76940;BME280;65885;55.848;35.916;2023-02-11T13:23:10;98329.50;;;1.98;62.29
76940;BME280;65885;55.848;35.916;2023-02-11T13:25:43;98325.59;;;1.82;61.93